Overview Statistics Trail Chart Weather Telemetry Raw packets
 

This is the latest recevied weather packets stored in our database for station/object KJ6HT. If no packets are shown the sender has not sent any weather packets the latest 10 day(s).

<< 21 22 23 24 25 26 27 >>
Time Temp. Humidity Pressure Rain* Wind** Luminosity Snow
1788130821 33.33° C 46% 1007.5 hPa 0 mm - - -
1788129974 33.33° C 47% 1007.7 hPa 0 mm - - -
1788129051 33.89° C 48% 1007.8 hPa 0 mm - - -
1788128118 33.89° C 48% 1008 hPa 0 mm - - -
1788127255 34.44° C 48% 1008.1 hPa 0 mm - - -
1788126323 34.44° C 46% 1008.3 hPa 0 mm - - -
1788125480 35° C 45% 1008.4 hPa 0 mm - - -
1788124548 35° C 43% 1008.6 hPa 0 mm - - -
1788123612 35° C 41% 1008.6 hPa 0 mm - - -
1788122766 35° C 42% 1008.7 hPa 0 mm - - -
1788121823 35° C 41% 1008.9 hPa 0 mm - - -
1788120981 35° C 41% 1008.9 hPa 0 mm - - -
1788120020 35° C 42% 1008.9 hPa 0 mm - - -
1788119185 34.44° C 41% 1009.2 hPa 0 mm - - -
1788118224 35.56° C 36% 1009.4 hPa 0 mm - - -
1788117370 34.44° C 38% 1009.5 hPa 0 mm - - -
1788116462 34.44° C 39% 1009.7 hPa 0 mm - - -
1788115517 32.78° C 43% 1009.9 hPa 0 mm - - -
1788114666 32.78° C 44% 1010 hPa 0 mm - - -
1788113721 32.22° C 47% 1010 hPa 0 mm - - -
1788112864 32.22° C 47% 1010 hPa 0 mm - - -
1788111929 31.67° C 48% 1010.1 hPa 0 mm - - -
1788111004 31.11° C 48% 1010.1 hPa 0 mm - - -
1788110166 30.56° C 49% 1010.1 hPa 0 mm - - -
1788109220 29.44° C 52% 1010.1 hPa 0 mm - - -

* Rain latest hour (hover to see other rain measurements)
** Current wind speed in m/s (hover to see current wind gust speed)